sensor_id;sensor_type;location;lat;lon;timestamp;pressure;altitude;pressure_sealevel;temperature;humidity
9525;BME280;15940;48.734;9.112;2023-02-24T00:00:06;96128.50;;;7.52;94.98
9525;BME280;15940;48.734;9.112;2023-02-24T00:02:57;96131.66;;;7.51;94.76
9525;BME280;15940;48.734;9.112;2023-02-24T00:05:35;96127.50;;;7.50;94.65
9525;BME280;15940;48.734;9.112;2023-02-24T00:08:04;96124.06;;;7.49;94.60
9525;BME280;15940;48.734;9.112;2023-02-24T00:10:31;96124.06;;;7.49;94.62
9525;BME280;15940;48.734;9.112;2023-02-24T00:12:59;96125.25;;;7.48;94.58
9525;BME280;15940;48.734;9.112;2023-02-24T00:15:26;96124.25;;;7.45;95.04
9525;BME280;15940;48.734;9.112;2023-02-24T00:17:54;96135.03;;;7.45;95.17
9525;BME280;15940;48.734;9.112;2023-02-24T00:20:20;96123.50;;;7.45;95.08
9525;BME280;15940;48.734;9.112;2023-02-24T00:22:50;96122.78;;;7.44;95.16
9525;BME280;15940;48.734;9.112;2023-02-24T00:25:17;96128.91;;;7.45;94.92
9525;BME280;15940;48.734;9.112;2023-02-24T00:27:44;96123.50;;;7.45;94.97
9525;BME280;15940;48.734;9.112;2023-02-24T00:30:12;96123.78;;;7.47;95.11
9525;BME280;15940;48.734;9.112;2023-02-24T00:32:39;96117.66;;;7.47;94.97
9525;BME280;15940;48.734;9.112;2023-02-24T00:35:07;96117.72;;;7.52;94.92
9525;BME280;15940;48.734;9.112;2023-02-24T00:37:35;96115.50;;;7.51;95.21
9525;BME280;15940;48.734;9.112;2023-02-24T00:40:04;96111.59;;;7.52;94.95
9525;BME280;15940;48.734;9.112;2023-02-24T00:42:36;96110.63;;;7.55;95.00
9525;BME280;15940;48.734;9.112;2023-02-24T00:45:06;96108.41;;;7.53;95.13
9525;BME280;15940;48.734;9.112;2023-02-24T00:47:37;96109.88;;;7.54;95.27
9525;BME280;15940;48.734;9.112;2023-02-24T00:50:05;96110.88;;;7.57;94.84
9525;BME280;15940;48.734;9.112;2023-02-24T00:52:33;96100.56;;;7.55;95.02
9525;BME280;15940;48.734;9.112;2023-02-24T00:55:03;96103.75;;;7.54;95.06
9525;BME280;15940;48.734;9.112;2023-02-24T00:57:39;96107.44;;;7.56;95.05
9525;BME280;15940;48.734;9.112;2023-02-24T01:00:09;96098.09;;;7.52;95.08
9525;BME280;15940;48.734;9.112;2023-02-24T01:02:41;96103.50;;;7.52;94.81
9525;BME280;15940;48.734;9.112;2023-02-24T01:05:10;96099.81;;;7.49;95.11
9525;BME280;15940;48.734;9.112;2023-02-24T01:07:37;96101.28;;;7.50;94.93
9525;BME280;15940;48.734;9.112;2023-02-24T01:10:06;96089.47;;;7.48;95.06
9525;BME280;15940;48.734;9.112;2023-02-24T01:12:37;96092.66;;;7.46;95.09
9525;BME280;15940;48.734;9.112;2023-02-24T01:15:21;96098.53;;;7.44;94.99
9525;BME280;15940;48.734;9.112;2023-02-24T01:17:49;96092.19;;;7.48;95.07
9525;BME280;15940;48.734;9.112;2023-02-24T01:20:16;96094.63;;;7.45;95.36
9525;BME280;15940;48.734;9.112;2023-02-24T01:22:46;96086.75;;;7.42;95.34
9525;BME280;15940;48.734;9.112;2023-02-24T01:25:15;96082.34;;;7.44;95.07
9525;BME280;15940;48.734;9.112;2023-02-24T01:27:43;96086.53;;;7.45;95.04
9525;BME280;15940;48.734;9.112;2023-02-24T01:30:11;96078.44;;;7.45;95.21
9525;BME280;15940;48.734;9.112;2023-02-24T01:32:41;96076.22;;;7.44;95.19
9525;BME280;15940;48.734;9.112;2023-02-24T01:35:08;96071.06;;;7.40;94.80
9525;BME280;15940;48.734;9.112;2023-02-24T01:37:37;96071.31;;;7.42;95.20
9525;BME280;15940;48.734;9.112;2023-02-24T01:40:06;96075.97;;;7.42;95.17
9525;BME280;15940;48.734;9.112;2023-02-24T01:42:43;96072.81;;;7.43;95.06
9525;BME280;15940;48.734;9.112;2023-02-24T01:45:18;96070.09;;;7.43;95.08
9525;BME280;15940;48.734;9.112;2023-02-24T01:47:46;96073.78;;;7.46;95.09
9525;BME280;15940;48.734;9.112;2023-02-24T01:50:15;96076.22;;;7.44;95.04
9525;BME280;15940;48.734;9.112;2023-02-24T01:52:47;96066.69;;;7.43;95.21
9525;BME280;15940;48.734;9.112;2023-02-24T01:55:20;96070.59;;;7.42;94.89
9525;BME280;15940;48.734;9.112;2023-02-24T01:57:52;96062.03;;;7.43;95.07
9525;BME280;15940;48.734;9.112;2023-02-24T02:00:20;96058.34;;;7.41;95.31
9525;BME280;15940;48.734;9.112;2023-02-24T02:03:19;96059.81;;;7.42;94.85
9525;BME280;15940;48.734;9.112;2023-02-24T02:05:50;96065.88;;;7.37;95.00
9525;BME280;15940;48.734;9.112;2023-02-24T02:08:18;96053.16;;;7.37;95.16
9525;BME280;15940;48.734;9.112;2023-02-24T02:10:48;96056.88;;;7.40;95.05
9525;BME280;15940;48.734;9.112;2023-02-24T02:13:26;96050.69;;;7.34;94.95
9525;BME280;15940;48.734;9.112;2023-02-24T02:16:06;96053.59;;;7.30;95.08
9525;BME280;15940;48.734;9.112;2023-02-24T02:18:46;96049.88;;;7.28;94.83
9525;BME280;15940;48.734;9.112;2023-02-24T02:22:05;96052.78;;;7.24;94.88
9525;BME280;15940;48.734;9.112;2023-02-24T02:24:44;96044.72;;;7.24;94.95
9525;BME280;15940;48.734;9.112;2023-02-24T02:27:29;96043.72;;;7.22;95.09
9525;BME280;15940;48.734;9.112;2023-02-24T02:34:07;96034.34;;;7.17;94.90
9525;BME280;15940;48.734;9.112;2023-02-24T02:36:48;96036.84;;;7.21;94.97
9525;BME280;15940;48.734;9.112;2023-02-24T02:39:30;96034.91;;;7.21;95.13
9525;BME280;15940;48.734;9.112;2023-02-24T02:42:07;96028.97;;;7.17;94.89
9525;BME280;15940;48.734;9.112;2023-02-24T02:44:49;96032.38;;;7.12;94.81
9525;BME280;15940;48.734;9.112;2023-02-24T02:47:27;96031.63;;;7.11;94.89
9525;BME280;15940;48.734;9.112;2023-02-24T02:50:04;96027.19;;;7.08;94.69
9525;BME280;15940;48.734;9.112;2023-02-24T02:52:39;96023.00;;;7.07;94.98
9525;BME280;15940;48.734;9.112;2023-02-24T02:55:11;96026.19;;;7.06;94.61
9525;BME280;15940;48.734;9.112;2023-02-24T02:57:46;96019.31;;;7.05;94.55
9525;BME280;15940;48.734;9.112;2023-02-24T03:00:21;96003.63;;;7.03;94.73
9525;BME280;15940;48.734;9.112;2023-02-24T03:02:53;96005.59;;;7.03;94.51
9525;BME280;15940;48.734;9.112;2023-02-24T03:05:26;96000.47;;;7.05;94.93
9525;BME280;15940;48.734;9.112;2023-02-24T03:07:58;96001.94;;;7.06;94.66
9525;BME280;15940;48.734;9.112;2023-02-24T03:10:28;95999.25;;;7.06;94.87
9525;BME280;15940;48.734;9.112;2023-02-24T03:13:02;96003.69;;;7.09;95.36
9525;BME280;15940;48.734;9.112;2023-02-24T03:15:31;96004.41;;;7.09;94.87
9525;BME280;15940;48.734;9.112;2023-02-24T03:18:03;95994.66;;;7.12;95.00
9525;BME280;15940;48.734;9.112;2023-02-24T03:20:40;95985.13;;;7.11;95.22
9525;BME280;15940;48.734;9.112;2023-02-24T03:23:12;95986.59;;;7.12;94.92
9525;BME280;15940;48.734;9.112;2023-02-24T03:25:47;95984.88;;;7.14;95.08
9525;BME280;15940;48.734;9.112;2023-02-24T03:28:21;95988.78;;;7.13;95.00
9525;BME280;15940;48.734;9.112;2023-02-24T03:30:59;95980.97;;;7.15;94.76
9525;BME280;15940;48.734;9.112;2023-02-24T03:33:34;95979.75;;;7.16;94.94
9525;BME280;15940;48.734;9.112;2023-02-24T03:36:04;95981.47;;;7.14;95.05
9525;BME280;15940;48.734;9.112;2023-02-24T03:38:33;95986.38;;;7.15;94.72
9525;BME280;15940;48.734;9.112;2023-02-24T03:41:03;95990.53;;;7.16;94.84
9525;BME280;15940;48.734;9.112;2023-02-24T03:43:38;95985.16;;;7.16;94.81
9525;BME280;15940;48.734;9.112;2023-02-24T03:46:07;95986.13;;;7.19;94.97
9525;BME280;15940;48.734;9.112;2023-02-24T03:48:40;95974.59;;;7.13;95.04
9525;BME280;15940;48.734;9.112;2023-02-24T03:51:14;95982.94;;;7.15;94.66
9525;BME280;15940;48.734;9.112;2023-02-24T03:53:54;95979.72;;;7.11;94.60
9525;BME280;15940;48.734;9.112;2023-02-24T03:56:32;95973.56;;;7.10;94.59
9525;BME280;15940;48.734;9.112;2023-02-24T03:59:15;95975.28;;;7.08;94.72
9525;BME280;15940;48.734;9.112;2023-02-24T04:01:48;95967.19;;;7.08;94.55
9525;BME280;15940;48.734;9.112;2023-02-24T04:04:29;95978.97;;;7.10;94.72
9525;BME280;15940;48.734;9.112;2023-02-24T04:07:04;95986.63;;;7.18;94.75
9525;BME280;15940;48.734;9.112;2023-02-24T04:09:40;95982.19;;;7.14;94.52
9525;BME280;15940;48.734;9.112;2023-02-24T04:12:16;95983.91;;;7.12;94.56
9525;BME280;15940;48.734;9.112;2023-02-24T04:14:49;95982.41;;;7.11;94.33
9525;BME280;15940;48.734;9.112;2023-02-24T04:17:21;95979.72;;;7.11;94.41
9525;BME280;15940;48.734;9.112;2023-02-24T04:19:53;95988.53;;;7.11;94.42
9525;BME280;15940;48.734;9.112;2023-02-24T04:22:24;95982.19;;;7.14;94.47
9525;BME280;15940;48.734;9.112;2023-02-24T04:24:56;95985.13;;;7.11;94.37
9525;BME280;15940;48.734;9.112;2023-02-24T04:27:26;95978.22;;;7.10;94.19
9525;BME280;15940;48.734;9.112;2023-02-24T04:29:56;95965.00;;;7.06;94.53
9525;BME280;15940;48.734;9.112;2023-02-24T04:32:27;95968.91;;;7.05;94.42
9525;BME280;15940;48.734;9.112;2023-02-24T04:35:02;95971.59;;;7.05;94.35
9525;BME280;15940;48.734;9.112;2023-02-24T04:37:32;95973.53;;;7.05;94.56
9525;BME280;15940;48.734;9.112;2023-02-24T04:40:05;95966.94;;;7.06;94.56
9525;BME280;15940;48.734;9.112;2023-02-24T04:42:36;95962.53;;;7.03;94.48
9525;BME280;15940;48.734;9.112;2023-02-24T04:45:11;95962.22;;;7.01;94.65
9525;BME280;15940;48.734;9.112;2023-02-24T04:47:38;95958.88;;;7.06;94.55
9525;BME280;15940;48.734;9.112;2023-02-24T04:50:09;95947.34;;;7.05;94.58
9525;BME280;15940;48.734;9.112;2023-02-24T04:52:38;95947.78;;;6.98;94.57
9525;BME280;15940;48.734;9.112;2023-02-24T04:55:09;95940.97;;;7.03;94.49
9525;BME280;15940;48.734;9.112;2023-02-24T04:57:36;95949.25;;;6.99;94.69
9525;BME280;15940;48.734;9.112;2023-02-24T05:00:05;95938.22;;;6.97;94.62
9525;BME280;15940;48.734;9.112;2023-02-24T05:02:45;95937.50;;;6.97;94.85
9525;BME280;15940;48.734;9.112;2023-02-24T05:05:14;95936.00;;;6.96;94.79
9525;BME280;15940;48.734;9.112;2023-02-24T05:07:42;95931.59;;;6.93;94.70
9525;BME280;15940;48.734;9.112;2023-02-24T05:10:13;95936.69;;;6.91;94.83
9525;BME280;15940;48.734;9.112;2023-02-24T05:12:41;95936.97;;;6.93;95.07
9525;BME280;15940;48.734;9.112;2023-02-24T05:15:10;95924.25;;;6.93;94.73
9525;BME280;15940;48.734;9.112;2023-02-24T05:17:38;95921.56;;;6.93;95.19
9525;BME280;15940;48.734;9.112;2023-02-24T05:20:08;95921.81;;;6.95;94.98
9525;BME280;15940;48.734;9.112;2023-02-24T05:22:54;95920.84;;;6.98;95.04
9525;BME280;15940;48.734;9.112;2023-02-24T05:25:21;95905.66;;;6.95;94.96
9525;BME280;15940;48.734;9.112;2023-02-24T05:27:50;95917.16;;;6.96;94.66
9525;BME280;15940;48.734;9.112;2023-02-24T05:30:17;95909.34;;;6.98;95.13
9525;BME280;15940;48.734;9.112;2023-02-24T05:32:43;95900.78;;;6.99;95.20
9525;BME280;15940;48.734;9.112;2023-02-24T05:35:10;95904.22;;;7.00;94.56
9525;BME280;15940;48.734;9.112;2023-02-24T05:37:38;95893.44;;;7.00;95.05
9525;BME280;15940;48.734;9.112;2023-02-24T05:40:10;95889.09;;;7.02;94.96
9525;BME280;15940;48.734;9.112;2023-02-24T05:42:40;95884.69;;;7.05;95.12
9525;BME280;15940;48.734;9.112;2023-02-24T05:45:10;95888.84;;;7.06;94.92
9525;BME280;15940;48.734;9.112;2023-02-24T05:47:37;95879.31;;;7.05;94.95
9525;BME280;15940;48.734;9.112;2023-02-24T05:50:06;95879.81;;;7.09;94.89
9525;BME280;15940;48.734;9.112;2023-02-24T05:52:34;95875.13;;;7.04;94.68
9525;BME280;15940;48.734;9.112;2023-02-24T05:55:03;95864.84;;;7.02;94.78
9525;BME280;15940;48.734;9.112;2023-02-24T05:57:39;95875.41;;;7.06;94.59
9525;BME280;15940;48.734;9.112;2023-02-24T06:00:08;95868.31;;;7.08;94.90
9525;BME280;15940;48.734;9.112;2023-02-24T06:02:40;95868.78;;;7.07;94.43
9525;BME280;15940;48.734;9.112;2023-02-24T06:05:16;95863.06;;;6.94;94.42
9525;BME280;15940;48.734;9.112;2023-02-24T06:07:55;95871.84;;;6.88;94.85
9525;BME280;15940;48.734;9.112;2023-02-24T06:10:30;95866.25;;;6.92;95.36
9525;BME280;15940;48.734;9.112;2023-02-24T06:13:00;95876.78;;;6.96;95.32
9525;BME280;15940;48.734;9.112;2023-02-24T06:15:28;95869.69;;;6.98;94.97
9525;BME280;15940;48.734;9.112;2023-02-24T06:17:56;95862.38;;;6.99;95.34
9525;BME280;15940;48.734;9.112;2023-02-24T06:20:27;95856.00;;;6.96;94.95
9525;BME280;15940;48.734;9.112;2023-02-24T06:22:54;95857.94;;;6.96;95.12
9525;BME280;15940;48.734;9.112;2023-02-24T06:25:23;95866.03;;;6.96;94.79
9525;BME280;15940;48.734;9.112;2023-02-24T06:27:52;95858.91;;;6.93;95.22
9525;BME280;15940;48.734;9.112;2023-02-24T06:30:22;95859.16;;;6.95;95.06
9525;BME280;15940;48.734;9.112;2023-02-24T06:32:49;95863.06;;;6.94;95.28
9525;BME280;15940;48.734;9.112;2023-02-24T06:35:17;95861.38;;;6.96;95.52
9525;BME280;15940;48.734;9.112;2023-02-24T06:37:44;95850.59;;;6.96;95.34
9525;BME280;15940;48.734;9.112;2023-02-24T06:40:11;95861.84;;;6.95;95.36
9525;BME280;15940;48.734;9.112;2023-02-24T06:42:46;95860.38;;;6.94;95.27
9525;BME280;15940;48.734;9.112;2023-02-24T06:45:14;95859.16;;;6.95;95.66
9525;BME280;15940;48.734;9.112;2023-02-24T06:47:42;95853.78;;;6.95;95.42
9525;BME280;15940;48.734;9.112;2023-02-24T06:50:14;95849.34;;;6.92;95.39
9525;BME280;15940;48.734;9.112;2023-02-24T06:52:41;95851.28;;;6.91;95.17
9525;BME280;15940;48.734;9.112;2023-02-24T06:55:09;95850.84;;;6.93;95.40
9525;BME280;15940;48.734;9.112;2023-02-24T06:57:54;95849.81;;;6.90;95.70
9525;BME280;15940;48.734;9.112;2023-02-24T07:00:31;95851.56;;;6.93;95.87
9525;BME280;15940;48.734;9.112;2023-02-24T07:03:07;95854.03;;;6.97;95.89
9525;BME280;15940;48.734;9.112;2023-02-24T07:05:43;95855.50;;;6.98;95.78
9525;BME280;15940;48.734;9.112;2023-02-24T07:08:19;95843.53;;;6.99;95.61
9525;BME280;15940;48.734;9.112;2023-02-24T07:10:52;95847.00;;;7.05;95.56
9525;BME280;15940;48.734;9.112;2023-02-24T07:13:20;95844.56;;;7.07;95.68
9525;BME280;15940;48.734;9.112;2023-02-24T07:15:49;95854.59;;;7.06;95.52
9525;BME280;15940;48.734;9.112;2023-02-24T07:18:18;95843.53;;;6.99;95.21
9525;BME280;15940;48.734;9.112;2023-02-24T07:20:45;95842.28;;;7.00;95.51
9525;BME280;15940;48.734;9.112;2023-02-24T07:23:13;95837.69;;;7.06;95.62
9525;BME280;15940;48.734;9.112;2023-02-24T07:25:42;95832.34;;;7.11;95.68
9525;BME280;15940;48.734;9.112;2023-02-24T07:28:11;95833.09;;;7.12;95.48
9525;BME280;15940;48.734;9.112;2023-02-24T07:30:40;95835.56;;;7.15;95.49
9525;BME280;15940;48.734;9.112;2023-02-24T07:33:07;95832.13;;;7.15;95.15
9525;BME280;15940;48.734;9.112;2023-02-24T07:35:35;95833.09;;;7.18;95.39
9525;BME280;15940;48.734;9.112;2023-02-24T07:38:05;95830.72;;;7.25;95.09
9525;BME280;15940;48.734;9.112;2023-02-24T07:40:32;95821.59;;;7.17;95.00
9525;BME280;15940;48.734;9.112;2023-02-24T07:43:01;95825.22;;;7.08;95.05
9525;BME280;15940;48.734;9.112;2023-02-24T07:45:30;95827.91;;;7.08;95.28
9525;BME280;15940;48.734;9.112;2023-02-24T07:47:58;95823.53;;;7.11;95.26
9525;BME280;15940;48.734;9.112;2023-02-24T07:50:26;95825.28;;;7.14;95.33
9525;BME280;15940;48.734;9.112;2023-02-24T07:52:58;95832.16;;;7.21;95.39
9525;BME280;15940;48.734;9.112;2023-02-24T07:55:29;95824.53;;;7.19;95.04
9525;BME280;15940;48.734;9.112;2023-02-24T07:57:56;95826.00;;;7.14;95.06
9525;BME280;15940;48.734;9.112;2023-02-24T08:00:26;95828.69;;;7.14;95.01
9525;BME280;15940;48.734;9.112;2023-02-24T08:02:55;95824.28;;;7.11;94.97
9525;BME280;15940;48.734;9.112;2023-02-24T08:05:23;95822.78;;;7.10;95.05
9525;BME280;15940;48.734;9.112;2023-02-24T08:07:50;95822.78;;;7.10;95.17
9525;BME280;15940;48.734;9.112;2023-02-24T08:10:19;95826.22;;;7.11;95.49
9525;BME280;15940;48.734;9.112;2023-02-24T08:12:54;95825.97;;;7.09;95.47
9525;BME280;15940;48.734;9.112;2023-02-24T08:15:23;95815.19;;;7.09;95.23
9525;BME280;15940;48.734;9.112;2023-02-24T08:17:52;95819.34;;;7.10;95.53
9525;BME280;15940;48.734;9.112;2023-02-24T08:20:24;95811.06;;;7.13;95.35
9525;BME280;15940;48.734;9.112;2023-02-24T08:22:54;95814.75;;;7.16;94.77
9525;BME280;15940;48.734;9.112;2023-02-24T08:25:25;95815.81;;;7.30;95.40
9525;BME280;15940;48.734;9.112;2023-02-24T08:28:01;95812.22;;;7.50;95.33
9525;BME280;15940;48.734;9.112;2023-02-24T08:30:32;95806.88;;;7.66;94.54
9525;BME280;15940;48.734;9.112;2023-02-24T08:33:05;95809.84;;;7.74;93.66
9525;BME280;15940;48.734;9.112;2023-02-24T08:35:36;95800.09;;;7.82;93.94
9525;BME280;15940;48.734;9.112;2023-02-24T08:38:07;95800.31;;;7.84;92.86
9525;BME280;15940;48.734;9.112;2023-02-24T08:40:45;95799.59;;;7.84;92.45
9525;BME280;15940;48.734;9.112;2023-02-24T08:43:23;95793.50;;;7.89;91.86
9525;BME280;15940;48.734;9.112;2023-02-24T08:46:02;95792.53;;;7.97;92.20
9525;BME280;15940;48.734;9.112;2023-02-24T08:48:34;95792.31;;;8.07;91.38
9525;BME280;15940;48.734;9.112;2023-02-24T08:51:11;95788.44;;;8.36;91.33
9525;BME280;15940;48.734;9.112;2023-02-24T08:53:39;95779.63;;;8.46;89.06
9525;BME280;15940;48.734;9.112;2023-02-24T08:56:11;95779.38;;;8.44;88.01
9525;BME280;15940;48.734;9.112;2023-02-24T08:58:41;95775.94;;;8.49;87.65
9525;BME280;15940;48.734;9.112;2023-02-24T09:01:16;95772.47;;;8.77;87.76
9525;BME280;15940;48.734;9.112;2023-02-24T09:03:51;95773.13;;;9.16;86.71
9525;BME280;15940;48.734;9.112;2023-02-24T09:06:23;95773.72;;;9.56;84.28
9525;BME280;15940;48.734;9.112;2023-02-24T09:08:54;95757.47;;;9.67;83.20
9525;BME280;15940;48.734;9.112;2023-02-24T09:11:44;95763.03;;;9.86;81.93
9525;BME280;15940;48.734;9.112;2023-02-24T09:14:13;95765.47;;;9.84;82.09
9525;BME280;15940;48.734;9.112;2023-02-24T09:16:44;95764.50;;;9.82;80.97
9525;BME280;15940;48.734;9.112;2023-02-24T09:19:29;95762.44;;;10.05;81.02
9525;BME280;15940;48.734;9.112;2023-02-24T09:22:31;95766.75;;;10.19;78.56
9525;BME280;15940;48.734;9.112;2023-02-24T09:25:09;95758.53;;;10.36;78.17
9525;BME280;15940;48.734;9.112;2023-02-24T09:27:53;95751.69;;;10.29;78.09
9525;BME280;15940;48.734;9.112;2023-02-24T09:30:26;95749.31;;;10.50;77.54
9525;BME280;15940;48.734;9.112;2023-02-24T09:33:12;95753.13;;;10.36;77.62
9525;BME280;15940;48.734;9.112;2023-02-24T09:35:51;95746.44;;;10.07;78.22
9525;BME280;15940;48.734;9.112;2023-02-24T09:38:21;95752.88;;;9.92;79.53
9525;BME280;15940;48.734;9.112;2023-02-24T09:41:21;95754.50;;;9.71;80.62
9525;BME280;15940;48.734;9.112;2023-02-24T09:43:59;95749.34;;;9.67;80.05
9525;BME280;15940;48.734;9.112;2023-02-24T09:46:32;95745.41;;;9.68;79.94
9525;BME280;15940;48.734;9.112;2023-02-24T09:49:10;95742.28;;;9.59;79.64
9525;BME280;15940;48.734;9.112;2023-02-24T09:51:39;95742.78;;;9.52;80.71
9525;BME280;15940;48.734;9.112;2023-02-24T09:54:15;95741.56;;;9.53;80.96
9525;BME280;15940;48.734;9.112;2023-02-24T09:56:52;95734.91;;;9.59;80.63
9525;BME280;15940;48.734;9.112;2023-02-24T09:59:46;95744.13;;;9.81;79.77
9525;BME280;15940;48.734;9.112;2023-02-24T10:02:39;95735.50;;;9.82;78.48
9525;BME280;15940;48.734;9.112;2023-02-24T10:05:21;95733.44;;;9.99;76.60
9525;BME280;15940;48.734;9.112;2023-02-24T10:07:53;95732.09;;;10.12;75.93
9525;BME280;15940;48.734;9.112;2023-02-24T10:10:24;95732.53;;;10.27;76.81
9525;BME280;15940;48.734;9.112;2023-02-24T10:13:00;95724.34;;;10.33;75.46
9525;BME280;15940;48.734;9.112;2023-02-24T10:15:42;95728.13;;;10.24;75.73
9525;BME280;15940;48.734;9.112;2023-02-24T10:18:31;95718.50;;;10.28;75.84
9525;BME280;15940;48.734;9.112;2023-02-24T10:21:13;95714.50;;;10.35;75.31
9525;BME280;15940;48.734;9.112;2023-02-24T10:24:03;95714.50;;;10.35;75.08
9525;BME280;15940;48.734;9.112;2023-02-24T10:26:38;95711.72;;;10.41;75.05
9525;BME280;15940;48.734;9.112;2023-02-24T10:29:22;95711.69;;;10.46;72.65
9525;BME280;15940;48.734;9.112;2023-02-24T10:32:06;95696.25;;;10.66;74.37
9525;BME280;15940;48.734;9.112;2023-02-24T10:34:41;95703.50;;;10.82;74.32
9525;BME280;15940;48.734;9.112;2023-02-24T10:37:13;95700.16;;;10.95;73.32
9525;BME280;15940;48.734;9.112;2023-02-24T10:39:44;95705.56;;;10.95;72.94
9525;BME280;15940;48.734;9.112;2023-02-24T10:42:23;95697.94;;;10.69;72.54
9525;BME280;15940;48.734;9.112;2023-02-24T10:44:51;95692.63;;;10.57;73.06
9525;BME280;15940;48.734;9.112;2023-02-24T10:47:25;95698.59;;;10.50;72.92
9525;BME280;15940;48.734;9.112;2023-02-24T10:49:58;95689.22;;;10.27;73.41
9525;BME280;15940;48.734;9.112;2023-02-24T10:52:30;95704.84;;;10.04;73.76
9525;BME280;15940;48.734;9.112;2023-02-24T10:55:38;95696.28;;;9.64;77.51
9525;BME280;15940;48.734;9.112;2023-02-24T10:58:26;95686.00;;;9.57;77.05
9525;BME280;15940;48.734;9.112;2023-02-24T11:01:11;95680.59;;;9.57;77.17
9525;BME280;15940;48.734;9.112;2023-02-24T11:03:49;95683.75;;;9.61;76.82
9525;BME280;15940;48.734;9.112;2023-02-24T11:06:28;95674.47;;;9.51;77.68
9525;BME280;15940;48.734;9.112;2023-02-24T11:09:19;95670.41;;;9.33;77.28
9525;BME280;15940;48.734;9.112;2023-02-24T11:12:05;95670.13;;;9.37;78.34
9525;BME280;15940;48.734;9.112;2023-02-24T11:14:53;95668.88;;;9.43;78.99
9525;BME280;15940;48.734;9.112;2023-02-24T11:17:46;95663.25;;;9.36;77.83
9525;BME280;15940;48.734;9.112;2023-02-24T11:20:27;95659.59;;;9.28;77.80
9525;BME280;15940;48.734;9.112;2023-02-24T11:22:55;95659.16;;;9.24;78.12
9525;BME280;15940;48.734;9.112;2023-02-24T11:25:25;95652.78;;;9.21;77.94
9525;BME280;15940;48.734;9.112;2023-02-24T11:27:54;95654.25;;;9.22;79.66
9525;BME280;15940;48.734;9.112;2023-02-24T11:30:29;95643.94;;;9.21;79.85
9525;BME280;15940;48.734;9.112;2023-02-24T11:33:20;95640.75;;;9.16;79.51
9525;BME280;15940;48.734;9.112;2023-02-24T11:36:01;95642.22;;;9.18;79.81
9525;BME280;15940;48.734;9.112;2023-02-24T11:38:39;95626.00;;;9.23;79.63
9525;BME280;15940;48.734;9.112;2023-02-24T11:41:16;95624.81;;;9.13;78.80
9525;BME280;15940;48.734;9.112;2023-02-24T11:43:55;95617.22;;;9.06;78.65
9525;BME280;15940;48.734;9.112;2023-02-24T11:46:33;95606.41;;;9.11;78.18
9525;BME280;15940;48.734;9.112;2023-02-24T11:49:26;95605.13;;;9.18;78.17
9525;BME280;15940;48.734;9.112;2023-02-24T11:51:58;95596.00;;;9.27;77.44
9525;BME280;15940;48.734;9.112;2023-02-24T11:54:32;95587.13;;;9.32;78.63
9525;BME280;15940;48.734;9.112;2023-02-24T11:57:03;95571.78;;;9.45;78.29
9525;BME280;15940;48.734;9.112;2023-02-24T11:59:35;95569.75;;;9.57;76.97
9525;BME280;15940;48.734;9.112;2023-02-24T12:02:14;95573.25;;;9.47;74.45
9525;BME280;15940;48.734;9.112;2023-02-24T12:04:50;95565.66;;;9.45;75.89
9525;BME280;15940;48.734;9.112;2023-02-24T12:07:27;95560.44;;;9.53;76.34
9525;BME280;15940;48.734;9.112;2023-02-24T12:10:02;95552.63;;;9.79;74.38
9525;BME280;15940;48.734;9.112;2023-02-24T12:12:38;95545.06;;;10.21;73.76
9525;BME280;15940;48.734;9.112;2023-02-24T12:15:14;95539.59;;;10.51;73.42
9525;BME280;15940;48.734;9.112;2023-02-24T12:17:59;95530.66;;;10.37;70.65
9525;BME280;15940;48.734;9.112;2023-02-24T12:20:33;95526.38;;;10.47;72.59
9525;BME280;15940;48.734;9.112;2023-02-24T12:23:12;95525.06;;;10.54;71.09
9525;BME280;15940;48.734;9.112;2023-02-24T12:26:00;95515.31;;;10.45;70.99
9525;BME280;15940;48.734;9.112;2023-02-24T12:28:45;95522.78;;;10.58;71.03
9525;BME280;15940;48.734;9.112;2023-02-24T12:31:24;95510.94;;;10.61;70.43
9525;BME280;15940;48.734;9.112;2023-02-24T12:34:06;95494.03;;;10.93;69.88
9525;BME280;15940;48.734;9.112;2023-02-24T12:37:02;95504.06;;;11.62;68.63
9525;BME280;15940;48.734;9.112;2023-02-24T12:39:44;95497.13;;;11.80;65.79
9525;BME280;15940;48.734;9.112;2023-02-24T12:42:23;95491.56;;;11.72;66.79
9525;BME280;15940;48.734;9.112;2023-02-24T12:45:00;95486.84;;;11.59;67.05
9525;BME280;15940;48.734;9.112;2023-02-24T12:47:39;95484.47;;;11.69;68.03
9525;BME280;15940;48.734;9.112;2023-02-24T12:50:28;95487.56;;;12.05;65.33
9525;BME280;15940;48.734;9.112;2023-02-24T12:53:08;95493.69;;;12.19;65.28
9525;BME280;15940;48.734;9.112;2023-02-24T12:55:48;95488.56;;;12.02;64.79
9525;BME280;15940;48.734;9.112;2023-02-24T12:58:23;95486.13;;;11.72;67.05
9525;BME280;15940;48.734;9.112;2023-02-24T13:01:04;95474.09;;;11.54;67.03
9525;BME280;15940;48.734;9.112;2023-02-24T13:03:49;95469.63;;;11.57;66.43
9525;BME280;15940;48.734;9.112;2023-02-24T13:06:31;95461.66;;;11.45;66.95
9525;BME280;15940;48.734;9.112;2023-02-24T13:09:11;95462.50;;;11.40;65.99
9525;BME280;15940;48.734;9.112;2023-02-24T13:11:45;95461.97;;;11.29;67.13
9525;BME280;15940;48.734;9.112;2023-02-24T13:14:22;95467.84;;;11.14;67.42
9525;BME280;15940;48.734;9.112;2023-02-24T13:17:15;95451.16;;;11.10;69.54
9525;BME280;15940;48.734;9.112;2023-02-24T13:19:45;95449.84;;;10.98;69.54
9525;BME280;15940;48.734;9.112;2023-02-24T13:22:26;95446.38;;;10.84;69.63
9525;BME280;15940;48.734;9.112;2023-02-24T13:25:17;95437.94;;;10.87;69.63
9525;BME280;15940;48.734;9.112;2023-02-24T13:27:57;95435.69;;;10.92;70.11
9525;BME280;15940;48.734;9.112;2023-02-24T13:30:39;95436.69;;;10.88;68.38
9525;BME280;15940;48.734;9.112;2023-02-24T13:33:22;95434.81;;;10.83;68.79
9525;BME280;15940;48.734;9.112;2023-02-24T13:36:07;95439.53;;;10.64;70.63
9525;BME280;15940;48.734;9.112;2023-02-24T13:38:38;95427.81;;;10.56;69.63
9525;BME280;15940;48.734;9.112;2023-02-24T13:41:08;95417.28;;;10.34;69.25
9525;BME280;15940;48.734;9.112;2023-02-24T13:43:53;95418.38;;;10.44;70.69
9525;BME280;15940;48.734;9.112;2023-02-24T13:46:20;95412.66;;;10.47;71.06
9525;BME280;15940;48.734;9.112;2023-02-24T13:48:59;95400.94;;;10.58;69.54
9525;BME280;15940;48.734;9.112;2023-02-24T13:52:06;95403.50;;;10.50;67.92
9525;BME280;15940;48.734;9.112;2023-02-24T13:55:19;95396.63;;;10.49;69.25
9525;BME280;15940;48.734;9.112;2023-02-24T13:58:18;95387.50;;;10.52;70.59
9525;BME280;15940;48.734;9.112;2023-02-24T14:01:04;95393.56;;;10.40;70.47
9525;BME280;15940;48.734;9.112;2023-02-24T14:03:33;95382.38;;;10.30;69.43